sensor_id;sensor_type;location;lat;lon;timestamp;temperature;humidity
9125;DHT22;4597;48.730;9.114;2023-08-24T00:01:12;21.30;99.90
9125;DHT22;4597;48.730;9.114;2023-08-24T00:03:39;21.30;99.90
9125;DHT22;4597;48.730;9.114;2023-08-24T00:06:05;21.20;99.90
9125;DHT22;4597;48.730;9.114;2023-08-24T00:08:31;21.20;99.90
9125;DHT22;4597;48.730;9.114;2023-08-24T00:10:56;21.10;99.90
9125;DHT22;4597;48.730;9.114;2023-08-24T00:13:22;21.10;99.90
9125;DHT22;4597;48.730;9.114;2023-08-24T00:15:47;21.10;99.90
9125;DHT22;4597;48.730;9.114;2023-08-24T00:18:13;21.00;99.90
9125;DHT22;4597;48.730;9.114;2023-08-24T00:20:39;21.00;99.90
9125;DHT22;4597;48.730;9.114;2023-08-24T00:23:04;21.00;99.90
9125;DHT22;4597;48.730;9.114;2023-08-24T00:25:30;20.90;99.90
9125;DHT22;4597;48.730;9.114;2023-08-24T00:27:56;20.90;99.90
9125;DHT22;4597;48.730;9.114;2023-08-24T00:30:23;20.90;99.90
9125;DHT22;4597;48.730;9.114;2023-08-24T00:32:48;20.90;99.90
9125;DHT22;4597;48.730;9.114;2023-08-24T00:35:14;20.80;99.90
9125;DHT22;4597;48.730;9.114;2023-08-24T00:37:40;20.80;99.90
9125;DHT22;4597;48.730;9.114;2023-08-24T00:40:07;20.80;99.90
9125;DHT22;4597;48.730;9.114;2023-08-24T00:42:39;20.70;99.90
9125;DHT22;4597;48.730;9.114;2023-08-24T00:45:05;20.70;99.90
9125;DHT22;4597;48.730;9.114;2023-08-24T00:47:32;20.70;99.90
9125;DHT22;4597;48.730;9.114;2023-08-24T00:49:59;20.60;99.90
9125;DHT22;4597;48.730;9.114;2023-08-24T00:52:28;20.70;99.90
9125;DHT22;4597;48.730;9.114;2023-08-24T00:54:54;20.70;99.90
9125;DHT22;4597;48.730;9.114;2023-08-24T00:57:21;20.60;99.90
9125;DHT22;4597;48.730;9.114;2023-08-24T00:59:47;20.60;99.90
9125;DHT22;4597;48.730;9.114;2023-08-24T01:02:13;20.60;99.90
9125;DHT22;4597;48.730;9.114;2023-08-24T01:04:41;20.60;99.90
9125;DHT22;4597;48.730;9.114;2023-08-24T01:07:07;20.60;99.90
9125;DHT22;4597;48.730;9.114;2023-08-24T01:09:34;20.60;99.90
9125;DHT22;4597;48.730;9.114;2023-08-24T01:17:15;20.50;99.90
9125;DHT22;4597;48.730;9.114;2023-08-24T01:19:44;20.40;99.90
9125;DHT22;4597;48.730;9.114;2023-08-24T01:22:20;20.40;99.90
9125;DHT22;4597;48.730;9.114;2023-08-24T01:24:54;20.30;99.90
9125;DHT22;4597;48.730;9.114;2023-08-24T01:27:26;20.30;99.90
9125;DHT22;4597;48.730;9.114;2023-08-24T01:29:53;20.30;99.90
9125;DHT22;4597;48.730;9.114;2023-08-24T01:32:22;20.30;99.90
9125;DHT22;4597;48.730;9.114;2023-08-24T01:34:48;20.30;99.90
9125;DHT22;4597;48.730;9.114;2023-08-24T01:37:13;20.20;99.90
9125;DHT22;4597;48.730;9.114;2023-08-24T01:39:43;20.20;99.90
9125;DHT22;4597;48.730;9.114;2023-08-24T01:42:15;20.20;99.90
9125;DHT22;4597;48.730;9.114;2023-08-24T01:44:42;20.20;99.90
9125;DHT22;4597;48.730;9.114;2023-08-24T01:47:12;20.20;99.90
9125;DHT22;4597;48.730;9.114;2023-08-24T01:49:40;20.20;99.90
9125;DHT22;4597;48.730;9.114;2023-08-24T01:52:06;20.10;99.90
9125;DHT22;4597;48.730;9.114;2023-08-24T01:54:32;20.10;99.90
9125;DHT22;4597;48.730;9.114;2023-08-24T01:56:58;20.10;99.90
9125;DHT22;4597;48.730;9.114;2023-08-24T01:59:23;20.10;99.90
9125;DHT22;4597;48.730;9.114;2023-08-24T02:01:49;20.10;99.90
9125;DHT22;4597;48.730;9.114;2023-08-24T02:04:14;20.00;99.90
9125;DHT22;4597;48.730;9.114;2023-08-24T02:06:40;20.00;99.90
9125;DHT22;4597;48.730;9.114;2023-08-24T02:09:05;20.10;99.90
9125;DHT22;4597;48.730;9.114;2023-08-24T02:11:31;20.10;99.90
9125;DHT22;4597;48.730;9.114;2023-08-24T02:13:56;20.10;99.90
9125;DHT22;4597;48.730;9.114;2023-08-24T02:16:22;20.10;99.90
9125;DHT22;4597;48.730;9.114;2023-08-24T02:18:47;20.10;99.90
9125;DHT22;4597;48.730;9.114;2023-08-24T02:21:13;20.10;99.90
9125;DHT22;4597;48.730;9.114;2023-08-24T02:23:39;20.00;99.90
9125;DHT22;4597;48.730;9.114;2023-08-24T02:26:05;20.00;99.90
9125;DHT22;4597;48.730;9.114;2023-08-24T02:28:32;20.00;99.90
9125;DHT22;4597;48.730;9.114;2023-08-24T02:31:01;19.90;99.90
9125;DHT22;4597;48.730;9.114;2023-08-24T02:33:27;19.90;99.90
9125;DHT22;4597;48.730;9.114;2023-08-24T02:35:52;19.90;99.90
9125;DHT22;4597;48.730;9.114;2023-08-24T02:38:18;19.90;99.90
9125;DHT22;4597;48.730;9.114;2023-08-24T02:40:43;19.90;99.90
9125;DHT22;4597;48.730;9.114;2023-08-24T02:43:09;19.90;99.90
9125;DHT22;4597;48.730;9.114;2023-08-24T02:45:35;19.90;99.90
9125;DHT22;4597;48.730;9.114;2023-08-24T02:48:00;19.80;99.90
9125;DHT22;4597;48.730;9.114;2023-08-24T02:50:26;19.80;99.90
9125;DHT22;4597;48.730;9.114;2023-08-24T02:52:51;19.80;99.90
9125;DHT22;4597;48.730;9.114;2023-08-24T02:55:17;19.80;99.90
9125;DHT22;4597;48.730;9.114;2023-08-24T02:57:43;19.80;99.90
9125;DHT22;4597;48.730;9.114;2023-08-24T03:00:09;19.80;99.90
9125;DHT22;4597;48.730;9.114;2023-08-24T03:02:35;19.80;99.90
9125;DHT22;4597;48.730;9.114;2023-08-24T03:05:02;19.80;99.90
9125;DHT22;4597;48.730;9.114;2023-08-24T03:07:28;19.80;99.90
9125;DHT22;4597;48.730;9.114;2023-08-24T03:09:53;19.90;99.90
9125;DHT22;4597;48.730;9.114;2023-08-24T03:12:19;19.80;99.90
9125;DHT22;4597;48.730;9.114;2023-08-24T03:14:44;19.80;99.90
9125;DHT22;4597;48.730;9.114;2023-08-24T03:17:10;19.80;99.90
9125;DHT22;4597;48.730;9.114;2023-08-24T03:19:35;19.70;99.90
9125;DHT22;4597;48.730;9.114;2023-08-24T03:22:01;19.70;99.90
9125;DHT22;4597;48.730;9.114;2023-08-24T03:24:26;19.70;99.90
9125;DHT22;4597;48.730;9.114;2023-08-24T03:26:52;19.70;99.90
9125;DHT22;4597;48.730;9.114;2023-08-24T03:29:17;19.70;99.90
9125;DHT22;4597;48.730;9.114;2023-08-24T03:31:43;19.60;99.90
9125;DHT22;4597;48.730;9.114;2023-08-24T03:34:08;19.60;99.90
9125;DHT22;4597;48.730;9.114;2023-08-24T03:36:34;19.60;99.90
9125;DHT22;4597;48.730;9.114;2023-08-24T03:38:59;19.60;99.90
9125;DHT22;4597;48.730;9.114;2023-08-24T03:41:25;19.50;99.90
9125;DHT22;4597;48.730;9.114;2023-08-24T03:43:50;19.50;99.90
9125;DHT22;4597;48.730;9.114;2023-08-24T03:46:16;19.50;99.90
9125;DHT22;4597;48.730;9.114;2023-08-24T03:48:41;19.50;99.90
9125;DHT22;4597;48.730;9.114;2023-08-24T03:51:07;19.50;99.90
9125;DHT22;4597;48.730;9.114;2023-08-24T03:53:32;19.60;99.90
9125;DHT22;4597;48.730;9.114;2023-08-24T03:55:58;19.60;99.90
9125;DHT22;4597;48.730;9.114;2023-08-24T03:58:23;19.60;99.90
9125;DHT22;4597;48.730;9.114;2023-08-24T04:00:49;19.60;99.90
9125;DHT22;4597;48.730;9.114;2023-08-24T04:03:15;19.60;99.90
9125;DHT22;4597;48.730;9.114;2023-08-24T04:05:42;19.70;99.90
9125;DHT22;4597;48.730;9.114;2023-08-24T04:08:07;19.70;99.90
9125;DHT22;4597;48.730;9.114;2023-08-24T04:10:33;19.70;99.90
9125;DHT22;4597;48.730;9.114;2023-08-24T04:12:58;19.70;99.90
9125;DHT22;4597;48.730;9.114;2023-08-24T04:15:24;19.80;99.90
9125;DHT22;4597;48.730;9.114;2023-08-24T04:17:50;19.80;99.90
9125;DHT22;4597;48.730;9.114;2023-08-24T04:20:15;19.80;99.90
9125;DHT22;4597;48.730;9.114;2023-08-24T04:22:41;19.80;99.90
9125;DHT22;4597;48.730;9.114;2023-08-24T04:25:07;19.70;99.90
9125;DHT22;4597;48.730;9.114;2023-08-24T04:27:33;19.70;99.90
9125;DHT22;4597;48.730;9.114;2023-08-24T04:29:59;19.70;99.90
9125;DHT22;4597;48.730;9.114;2023-08-24T04:32:26;19.60;99.90
9125;DHT22;4597;48.730;9.114;2023-08-24T04:34:52;19.60;99.90
9125;DHT22;4597;48.730;9.114;2023-08-24T04:37:17;19.60;99.90
9125;DHT22;4597;48.730;9.114;2023-08-24T04:39:43;19.60;99.90
9125;DHT22;4597;48.730;9.114;2023-08-24T04:42:08;19.60;99.90
9125;DHT22;4597;48.730;9.114;2023-08-24T04:44:34;19.60;99.90
9125;DHT22;4597;48.730;9.114;2023-08-24T04:46:59;19.60;99.90
9125;DHT22;4597;48.730;9.114;2023-08-24T04:49:25;19.50;99.90
9125;DHT22;4597;48.730;9.114;2023-08-24T04:51:51;19.50;99.90
9125;DHT22;4597;48.730;9.114;2023-08-24T04:54:16;19.50;99.90
9125;DHT22;4597;48.730;9.114;2023-08-24T04:56:42;19.50;99.90
9125;DHT22;4597;48.730;9.114;2023-08-24T04:59:08;19.50;99.90
9125;DHT22;4597;48.730;9.114;2023-08-24T05:01:34;19.50;99.90
9125;DHT22;4597;48.730;9.114;2023-08-24T05:04:00;19.50;99.90
9125;DHT22;4597;48.730;9.114;2023-08-24T05:06:25;19.50;99.90
9125;DHT22;4597;48.730;9.114;2023-08-24T05:08:51;19.50;99.90
9125;DHT22;4597;48.730;9.114;2023-08-24T05:11:18;19.50;99.90
9125;DHT22;4597;48.730;9.114;2023-08-24T05:13:44;19.50;99.90
9125;DHT22;4597;48.730;9.114;2023-08-24T05:16:10;19.50;99.90
9125;DHT22;4597;48.730;9.114;2023-08-24T05:18:36;19.50;99.90
9125;DHT22;4597;48.730;9.114;2023-08-24T05:21:05;19.60;99.90
9125;DHT22;4597;48.730;9.114;2023-08-24T05:23:32;19.60;99.90
9125;DHT22;4597;48.730;9.114;2023-08-24T05:25:59;19.60;99.90
9125;DHT22;4597;48.730;9.114;2023-08-24T05:28:25;19.70;99.90
9125;DHT22;4597;48.730;9.114;2023-08-24T05:30:52;19.70;99.90
9125;DHT22;4597;48.730;9.114;2023-08-24T05:33:17;19.80;99.90
9125;DHT22;4597;48.730;9.114;2023-08-24T05:35:43;19.80;99.90
9125;DHT22;4597;48.730;9.114;2023-08-24T05:38:08;19.80;99.90
9125;DHT22;4597;48.730;9.114;2023-08-24T05:40:34;19.90;99.90
9125;DHT22;4597;48.730;9.114;2023-08-24T05:43:00;19.90;99.90
9125;DHT22;4597;48.730;9.114;2023-08-24T05:45:25;19.90;99.90
9125;DHT22;4597;48.730;9.114;2023-08-24T05:47:51;20.00;99.90
9125;DHT22;4597;48.730;9.114;2023-08-24T05:50:16;20.00;99.90
9125;DHT22;4597;48.730;9.114;2023-08-24T05:52:42;20.10;99.90
9125;DHT22;4597;48.730;9.114;2023-08-24T05:55:08;20.10;99.90
9125;DHT22;4597;48.730;9.114;2023-08-24T05:57:33;20.20;99.90
9125;DHT22;4597;48.730;9.114;2023-08-24T05:59:59;20.30;99.90
9125;DHT22;4597;48.730;9.114;2023-08-24T06:02:24;20.30;99.90
9125;DHT22;4597;48.730;9.114;2023-08-24T06:04:50;20.40;99.90
9125;DHT22;4597;48.730;9.114;2023-08-24T06:07:16;20.40;99.90
9125;DHT22;4597;48.730;9.114;2023-08-24T06:09:42;20.50;99.90
9125;DHT22;4597;48.730;9.114;2023-08-24T06:12:08;20.50;99.90
9125;DHT22;4597;48.730;9.114;2023-08-24T06:14:33;20.60;99.90
9125;DHT22;4597;48.730;9.114;2023-08-24T06:16:59;20.60;99.90
9125;DHT22;4597;48.730;9.114;2023-08-24T06:19:24;20.60;99.90
9125;DHT22;4597;48.730;9.114;2023-08-24T06:21:50;20.60;99.90
9125;DHT22;4597;48.730;9.114;2023-08-24T06:24:15;20.60;99.90
9125;DHT22;4597;48.730;9.114;2023-08-24T06:26:41;20.60;99.90
9125;DHT22;4597;48.730;9.114;2023-08-24T06:29:06;20.70;99.90
9125;DHT22;4597;48.730;9.114;2023-08-24T06:31:32;20.70;99.90
9125;DHT22;4597;48.730;9.114;2023-08-24T06:33:58;20.60;99.90
9125;DHT22;4597;48.730;9.114;2023-08-24T06:36:24;20.70;99.90
9125;DHT22;4597;48.730;9.114;2023-08-24T06:38:49;20.70;99.90
9125;DHT22;4597;48.730;9.114;2023-08-24T06:41:15;20.70;99.90
9125;DHT22;4597;48.730;9.114;2023-08-24T06:43:40;20.70;99.90
9125;DHT22;4597;48.730;9.114;2023-08-24T06:46:06;20.70;99.90
9125;DHT22;4597;48.730;9.114;2023-08-24T06:48:35;20.80;99.90
9125;DHT22;4597;48.730;9.114;2023-08-24T06:51:01;20.90;99.90
9125;DHT22;4597;48.730;9.114;2023-08-24T06:53:26;21.00;99.90
9125;DHT22;4597;48.730;9.114;2023-08-24T06:55:55;21.00;99.90
9125;DHT22;4597;48.730;9.114;2023-08-24T06:58:21;21.10;99.90
9125;DHT22;4597;48.730;9.114;2023-08-24T07:00:47;21.20;99.90
9125;DHT22;4597;48.730;9.114;2023-08-24T07:03:13;21.20;99.90
9125;DHT22;4597;48.730;9.114;2023-08-24T07:05:38;21.30;99.90
9125;DHT22;4597;48.730;9.114;2023-08-24T07:08:04;21.30;99.90
9125;DHT22;4597;48.730;9.114;2023-08-24T07:10:30;21.40;99.90
9125;DHT22;4597;48.730;9.114;2023-08-24T07:15:30;21.50;99.90
9125;DHT22;4597;48.730;9.114;2023-08-24T07:17:55;21.50;99.90
9125;DHT22;4597;48.730;9.114;2023-08-24T07:20:21;21.50;99.90
9125;DHT22;4597;48.730;9.114;2023-08-24T07:22:46;21.60;99.90
9125;DHT22;4597;48.730;9.114;2023-08-24T07:25:12;21.60;99.90
9125;DHT22;4597;48.730;9.114;2023-08-24T07:27:37;21.60;99.90
9125;DHT22;4597;48.730;9.114;2023-08-24T07:30:03;21.60;99.90
9125;DHT22;4597;48.730;9.114;2023-08-24T07:32:31;21.60;99.90
9125;DHT22;4597;48.730;9.114;2023-08-24T07:34:57;21.60;99.90
9125;DHT22;4597;48.730;9.114;2023-08-24T07:37:25;21.60;99.90
9125;DHT22;4597;48.730;9.114;2023-08-24T07:39:50;21.60;99.90
9125;DHT22;4597;48.730;9.114;2023-08-24T07:44:44;21.70;99.90
9125;DHT22;4597;48.730;9.114;2023-08-24T07:47:09;21.70;99.90
9125;DHT22;4597;48.730;9.114;2023-08-24T07:49:35;21.70;99.90
9125;DHT22;4597;48.730;9.114;2023-08-24T07:52:00;21.80;99.90
9125;DHT22;4597;48.730;9.114;2023-08-24T07:54:26;21.80;99.90
9125;DHT22;4597;48.730;9.114;2023-08-24T07:56:51;21.90;99.90
9125;DHT22;4597;48.730;9.114;2023-08-24T07:59:18;21.90;99.90
9125;DHT22;4597;48.730;9.114;2023-08-24T08:01:43;22.00;99.90
9125;DHT22;4597;48.730;9.114;2023-08-24T08:04:09;22.00;99.90
9125;DHT22;4597;48.730;9.114;2023-08-24T08:06:34;22.10;99.90
9125;DHT22;4597;48.730;9.114;2023-08-24T08:09:00;22.10;99.90
9125;DHT22;4597;48.730;9.114;2023-08-24T08:11:26;22.20;99.90
9125;DHT22;4597;48.730;9.114;2023-08-24T08:13:51;22.20;99.90
9125;DHT22;4597;48.730;9.114;2023-08-24T08:16:16;22.30;99.90
9125;DHT22;4597;48.730;9.114;2023-08-24T08:18:42;22.30;99.90
9125;DHT22;4597;48.730;9.114;2023-08-24T08:21:15;22.30;99.90
9125;DHT22;4597;48.730;9.114;2023-08-24T08:23:45;22.40;99.90
9125;DHT22;4597;48.730;9.114;2023-08-24T08:26:11;22.40;99.90
9125;DHT22;4597;48.730;9.114;2023-08-24T08:28:36;22.40;99.90
9125;DHT22;4597;48.730;9.114;2023-08-24T08:31:02;22.50;99.90
9125;DHT22;4597;48.730;9.114;2023-08-24T08:33:29;22.50;99.90
9125;DHT22;4597;48.730;9.114;2023-08-24T08:35:55;22.50;99.90
9125;DHT22;4597;48.730;9.114;2023-08-24T08:38:20;22.60;99.90
9125;DHT22;4597;48.730;9.114;2023-08-24T08:40:51;22.60;99.90
9125;DHT22;4597;48.730;9.114;2023-08-24T08:43:17;22.70;99.90
9125;DHT22;4597;48.730;9.114;2023-08-24T08:45:42;22.70;99.90
9125;DHT22;4597;48.730;9.114;2023-08-24T08:48:08;22.70;99.90
9125;DHT22;4597;48.730;9.114;2023-08-24T08:50:34;22.80;99.90
9125;DHT22;4597;48.730;9.114;2023-08-24T08:53:00;22.80;99.90
9125;DHT22;4597;48.730;9.114;2023-08-24T08:55:27;22.90;99.90
9125;DHT22;4597;48.730;9.114;2023-08-24T08:57:56;22.90;99.90
9125;DHT22;4597;48.730;9.114;2023-08-24T09:00:24;23.00;99.90
9125;DHT22;4597;48.730;9.114;2023-08-24T09:02:51;23.00;99.90
9125;DHT22;4597;48.730;9.114;2023-08-24T09:05:18;23.10;99.90
9125;DHT22;4597;48.730;9.114;2023-08-24T09:07:46;23.20;99.90
9125;DHT22;4597;48.730;9.114;2023-08-24T09:10:12;23.20;99.90
9125;DHT22;4597;48.730;9.114;2023-08-24T09:12:38;23.30;99.90
9125;DHT22;4597;48.730;9.114;2023-08-24T09:15:04;23.40;99.90
9125;DHT22;4597;48.730;9.114;2023-08-24T09:17:32;23.50;99.90
9125;DHT22;4597;48.730;9.114;2023-08-24T09:19:59;23.50;99.90
9125;DHT22;4597;48.730;9.114;2023-08-24T09:22:25;23.60;99.90
9125;DHT22;4597;48.730;9.114;2023-08-24T09:24:50;23.70;99.90
9125;DHT22;4597;48.730;9.114;2023-08-24T09:27:17;23.70;99.90
9125;DHT22;4597;48.730;9.114;2023-08-24T09:29:46;23.80;99.90
9125;DHT22;4597;48.730;9.114;2023-08-24T09:32:12;23.80;99.90
9125;DHT22;4597;48.730;9.114;2023-08-24T09:34:38;23.90;99.90
9125;DHT22;4597;48.730;9.114;2023-08-24T09:37:03;24.00;99.90
9125;DHT22;4597;48.730;9.114;2023-08-24T09:39:30;24.00;99.90
9125;DHT22;4597;48.730;9.114;2023-08-24T09:42:00;24.10;99.90
9125;DHT22;4597;48.730;9.114;2023-08-24T09:44:28;24.20;99.90
9125;DHT22;4597;48.730;9.114;2023-08-24T09:46:54;24.30;99.90
9125;DHT22;4597;48.730;9.114;2023-08-24T09:49:19;24.30;99.90
9125;DHT22;4597;48.730;9.114;2023-08-24T09:51:45;24.40;99.90
9125;DHT22;4597;48.730;9.114;2023-08-24T09:54:11;24.50;99.90
9125;DHT22;4597;48.730;9.114;2023-08-24T09:56:40;24.60;99.90
9125;DHT22;4597;48.730;9.114;2023-08-24T09:59:15;24.70;99.90
9125;DHT22;4597;48.730;9.114;2023-08-24T10:01:45;24.70;99.90
9125;DHT22;4597;48.730;9.114;2023-08-24T10:04:13;24.80;99.90
9125;DHT22;4597;48.730;9.114;2023-08-24T10:06:40;24.90;99.90
9125;DHT22;4597;48.730;9.114;2023-08-24T10:09:09;25.00;99.90
9125;DHT22;4597;48.730;9.114;2023-08-24T10:11:42;25.10;99.90
9125;DHT22;4597;48.730;9.114;2023-08-24T10:14:24;25.30;99.90
9125;DHT22;4597;48.730;9.114;2023-08-24T10:16:52;25.40;99.90
9125;DHT22;4597;48.730;9.114;2023-08-24T10:19:18;25.50;99.90
9125;DHT22;4597;48.730;9.114;2023-08-24T10:21:44;25.60;99.90
9125;DHT22;4597;48.730;9.114;2023-08-24T10:24:11;25.60;99.90
9125;DHT22;4597;48.730;9.114;2023-08-24T10:26:39;25.70;99.90
9125;DHT22;4597;48.730;9.114;2023-08-24T10:29:06;25.80;99.90
9125;DHT22;4597;48.730;9.114;2023-08-24T10:31:32;25.90;99.90
9125;DHT22;4597;48.730;9.114;2023-08-24T10:33:58;26.00;99.90
9125;DHT22;4597;48.730;9.114;2023-08-24T10:36:24;26.10;99.90
9125;DHT22;4597;48.730;9.114;2023-08-24T10:38:55;26.20;99.90
9125;DHT22;4597;48.730;9.114;2023-08-24T10:41:26;26.30;99.90
9125;DHT22;4597;48.730;9.114;2023-08-24T10:43:52;26.40;99.90
9125;DHT22;4597;48.730;9.114;2023-08-24T10:46:17;26.50;99.90
9125;DHT22;4597;48.730;9.114;2023-08-24T10:53:44;26.70;99.90
9125;DHT22;4597;48.730;9.114;2023-08-24T10:56:14;26.70;99.90
9125;DHT22;4597;48.730;9.114;2023-08-24T10:58:40;26.80;99.90
9125;DHT22;4597;48.730;9.114;2023-08-24T11:01:05;26.80;99.90
9125;DHT22;4597;48.730;9.114;2023-08-24T11:03:34;26.80;99.90
9125;DHT22;4597;48.730;9.114;2023-08-24T11:06:00;26.90;99.90
9125;DHT22;4597;48.730;9.114;2023-08-24T11:08:44;26.90;99.90
9125;DHT22;4597;48.730;9.114;2023-08-24T11:11:23;27.00;99.90
9125;DHT22;4597;48.730;9.114;2023-08-24T11:14:19;27.10;99.90
9125;DHT22;4597;48.730;9.114;2023-08-24T11:16:48;27.20;99.90
9125;DHT22;4597;48.730;9.114;2023-08-24T11:19:15;27.30;99.90
9125;DHT22;4597;48.730;9.114;2023-08-24T11:21:42;27.30;99.90
9125;DHT22;4597;48.730;9.114;2023-08-24T11:24:09;27.50;99.90
9125;DHT22;4597;48.730;9.114;2023-08-24T11:26:40;27.60;99.90
9125;DHT22;4597;48.730;9.114;2023-08-24T11:29:06;27.70;99.90
9125;DHT22;4597;48.730;9.114;2023-08-24T11:31:33;27.70;99.90
9125;DHT22;4597;48.730;9.114;2023-08-24T11:33:59;27.80;99.90
9125;DHT22;4597;48.730;9.114;2023-08-24T11:36:25;27.90;99.90
9125;DHT22;4597;48.730;9.114;2023-08-24T11:38:59;28.00;99.90
9125;DHT22;4597;48.730;9.114;2023-08-24T11:41:25;28.10;99.90
9125;DHT22;4597;48.730;9.114;2023-08-24T11:43:59;28.20;99.90
9125;DHT22;4597;48.730;9.114;2023-08-24T11:46:25;28.40;99.90
9125;DHT22;4597;48.730;9.114;2023-08-24T11:48:53;28.50;99.90
9125;DHT22;4597;48.730;9.114;2023-08-24T11:51:18;28.60;99.90
9125;DHT22;4597;48.730;9.114;2023-08-24T11:53:45;28.70;99.90
9125;DHT22;4597;48.730;9.114;2023-08-24T11:56:12;28.80;99.90
9125;DHT22;4597;48.730;9.114;2023-08-24T11:58:42;28.90;99.90
9125;DHT22;4597;48.730;9.114;2023-08-24T12:01:11;29.00;99.90
9125;DHT22;4597;48.730;9.114;2023-08-24T12:03:38;29.20;99.90
9125;DHT22;4597;48.730;9.114;2023-08-24T12:06:11;29.30;99.90
9125;DHT22;4597;48.730;9.114;2023-08-24T12:08:39;29.50;99.90
9125;DHT22;4597;48.730;9.114;2023-08-24T12:11:16;29.80;98.50
9125;DHT22;4597;48.730;9.114;2023-08-24T12:13:48;30.00;97.50
9125;DHT22;4597;48.730;9.114;2023-08-24T12:16:16;30.10;97.70
9125;DHT22;4597;48.730;9.114;2023-08-24T12:18:55;30.30;97.30
9125;DHT22;4597;48.730;9.114;2023-08-24T12:21:21;30.40;96.10
9125;DHT22;4597;48.730;9.114;2023-08-24T12:23:57;30.50;95.30
9125;DHT22;4597;48.730;9.114;2023-08-24T12:26:23;30.60;95.30
9125;DHT22;4597;48.730;9.114;2023-08-24T12:28:50;30.80;94.90
9125;DHT22;4597;48.730;9.114;2023-08-24T12:31:17;30.90;94.40
9125;DHT22;4597;48.730;9.114;2023-08-24T12:33:42;31.10;93.70
9125;DHT22;4597;48.730;9.114;2023-08-24T12:36:09;31.20;92.80
9125;DHT22;4597;48.730;9.114;2023-08-24T12:38:35;31.30;92.10
9125;DHT22;4597;48.730;9.114;2023-08-24T12:41:01;31.30;92.50
9125;DHT22;4597;48.730;9.114;2023-08-24T12:43:26;31.40;91.20
9125;DHT22;4597;48.730;9.114;2023-08-24T12:45:52;31.50;83.30
9125;DHT22;4597;48.730;9.114;2023-08-24T12:48:18;31.60;80.50
9125;DHT22;4597;48.730;9.114;2023-08-24T12:50:43;31.80;86.80
9125;DHT22;4597;48.730;9.114;2023-08-24T12:53:09;32.00;83.10
9125;DHT22;4597;48.730;9.114;2023-08-24T12:55:35;32.00;85.10
9125;DHT22;4597;48.730;9.114;2023-08-24T12:58:01;32.10;84.20
9125;DHT22;4597;48.730;9.114;2023-08-24T13:00:26;32.20;81.00
9125;DHT22;4597;48.730;9.114;2023-08-24T13:02:53;32.20;83.70
9125;DHT22;4597;48.730;9.114;2023-08-24T13:05:18;32.30;79.90
9125;DHT22;4597;48.730;9.114;2023-08-24T13:07:44;32.30;81.60
9125;DHT22;4597;48.730;9.114;2023-08-24T13:10:09;32.30;82.50
9125;DHT22;4597;48.730;9.114;2023-08-24T13:12:35;32.40;81.50
9125;DHT22;4597;48.730;9.114;2023-08-24T13:15:02;32.50;79.00
9125;DHT22;4597;48.730;9.114;2023-08-24T13:17:29;32.60;78.60
9125;DHT22;4597;48.730;9.114;2023-08-24T13:19:55;32.80;80.90
9125;DHT22;4597;48.730;9.114;2023-08-24T13:22:20;32.90;79.00
9125;DHT22;4597;48.730;9.114;2023-08-24T13:24:46;33.00;75.50
9125;DHT22;4597;48.730;9.114;2023-08-24T13:27:11;33.10;73.50
9125;DHT22;4597;48.730;9.114;2023-08-24T13:29:37;33.30;75.90
9125;DHT22;4597;48.730;9.114;2023-08-24T13:32:03;33.50;73.00
9125;DHT22;4597;48.730;9.114;2023-08-24T13:34:30;33.70;72.20
9125;DHT22;4597;48.730;9.114;2023-08-24T13:36:59;33.80;69.40
9125;DHT22;4597;48.730;9.114;2023-08-24T13:39:28;34.00;70.90
9125;DHT22;4597;48.730;9.114;2023-08-24T13:41:57;34.30;67.70
9125;DHT22;4597;48.730;9.114;2023-08-24T13:44:23;34.50;66.30
9125;DHT22;4597;48.730;9.114;2023-08-24T13:46:50;34.80;65.00
9125;DHT22;4597;48.730;9.114;2023-08-24T13:49:16;35.10;64.10
9125;DHT22;4597;48.730;9.114;2023-08-24T13:51:42;35.20;61.60
9125;DHT22;4597;48.730;9.114;2023-08-24T13:54:15;35.50;59.60
9125;DHT22;4597;48.730;9.114;2023-08-24T13:56:41;35.80;58.90
9125;DHT22;4597;48.730;9.114;2023-08-24T13:59:07;36.00;57.20
9125;DHT22;4597;48.730;9.114;2023-08-24T14:01:32;36.40;54.10
9125;DHT22;4597;48.730;9.114;2023-08-24T14:03:58;36.50;51.90
9125;DHT22;4597;48.730;9.114;2023-08-24T14:06:24;36.20;51.10
9125;DHT22;4597;48.730;9.114;2023-08-24T14:08:50;35.70;53.30
9125;DHT22;4597;48.730;9.114;2023-08-24T14:11:15;35.10;52.70
9125;DHT22;4597;48.730;9.114;2023-08-24T14:13:42;34.70;54.40
9125;DHT22;4597;48.730;9.114;2023-08-24T14:16:07;34.30;54.50
9125;DHT22;4597;48.730;9.114;2023-08-24T14:18:33;33.90;54.20
9125;DHT22;4597;48.730;9.114;2023-08-24T14:21:01;33.60;55.10
9125;DHT22;4597;48.730;9.114;2023-08-24T14:23:27;33.40;57.30
9125;DHT22;4597;48.730;9.114;2023-08-24T14:25:53;33.10;58.00
9125;DHT22;4597;48.730;9.114;2023-08-24T14:28:21;32.90;59.80
9125;DHT22;4597;48.730;9.114;2023-08-24T14:30:51;32.70;59.70
9125;DHT22;4597;48.730;9.114;2023-08-24T14:33:17;32.60;59.80
9125;DHT22;4597;48.730;9.114;2023-08-24T14:35:53;32.40;61.30
9125;DHT22;4597;48.730;9.114;2023-08-24T14:38:18;32.20;63.10
9125;DHT22;4597;48.730;9.114;2023-08-24T14:40:44;32.00;64.30
9125;DHT22;4597;48.730;9.114;2023-08-24T14:43:10;31.90;66.30
9125;DHT22;4597;48.730;9.114;2023-08-24T14:45:36;31.80;67.30
9125;DHT22;4597;48.730;9.114;2023-08-24T14:48:02;31.70;68.50
9125;DHT22;4597;48.730;9.114;2023-08-24T14:50:27;31.60;79.10
9125;DHT22;4597;48.730;9.114;2023-08-24T14:52:53;31.10;87.50
9125;DHT22;4597;48.730;9.114;2023-08-24T14:55:18;29.80;99.90
9125;DHT22;4597;48.730;9.114;2023-08-24T14:57:44;26.20;99.90
9125;DHT22;4597;48.730;9.114;2023-08-24T15:00:10;23.40;99.90
9125;DHT22;4597;48.730;9.114;2023-08-24T15:02:35;22.80;99.90
9125;DHT22;4597;48.730;9.114;2023-08-24T15:05:02;22.30;99.90
9125;DHT22;4597;48.730;9.114;2023-08-24T15:07:28;22.10;99.90
9125;DHT22;4597;48.730;9.114;2023-08-24T15:09:54;22.10;99.90
9125;DHT22;4597;48.730;9.114;2023-08-24T15:12:20;22.10;99.90
9125;DHT22;4597;48.730;9.114;2023-08-24T15:14:59;22.20;99.90
9125;DHT22;4597;48.730;9.114;2023-08-24T15:17:26;22.30;99.90
9125;DHT22;4597;48.730;9.114;2023-08-24T15:19:52;22.50;99.90
9125;DHT22;4597;48.730;9.114;2023-08-24T15:22:17;22.70;99.90
9125;DHT22;4597;48.730;9.114;2023-08-24T15:24:43;22.90;99.90
9125;DHT22;4597;48.730;9.114;2023-08-24T15:27:08;22.90;99.90
9125;DHT22;4597;48.730;9.114;2023-08-24T15:29:34;23.10;99.90
9125;DHT22;4597;48.730;9.114;2023-08-24T15:32:00;23.20;99.90
9125;DHT22;4597;48.730;9.114;2023-08-24T15:34:26;23.30;99.90
9125;DHT22;4597;48.730;9.114;2023-08-24T15:36:51;23.40;99.90
9125;DHT22;4597;48.730;9.114;2023-08-24T15:39:19;23.50;99.90
9125;DHT22;4597;48.730;9.114;2023-08-24T15:41:44;23.50;99.90
9125;DHT22;4597;48.730;9.114;2023-08-24T15:44:10;23.50;99.90
9125;DHT22;4597;48.730;9.114;2023-08-24T15:46:35;23.60;99.90
9125;DHT22;4597;48.730;9.114;2023-08-24T15:49:01;23.50;99.90
9125;DHT22;4597;48.730;9.114;2023-08-24T15:51:26;23.50;99.90
9125;DHT22;4597;48.730;9.114;2023-08-24T15:53:52;23.50;99.90
9125;DHT22;4597;48.730;9.114;2023-08-24T15:56:18;23.50;99.90
9125;DHT22;4597;48.730;9.114;2023-08-24T15:58:43;23.40;99.90
9125;DHT22;4597;48.730;9.114;2023-08-24T16:01:09;23.30;99.90
9125;DHT22;4597;48.730;9.114;2023-08-24T16:03:35;23.20;99.90
9125;DHT22;4597;48.730;9.114;2023-08-24T16:06:01;23.20;99.90
9125;DHT22;4597;48.730;9.114;2023-08-24T16:08:26;23.10;99.90
9125;DHT22;4597;48.730;9.114;2023-08-24T16:10:55;23.10;99.90
9125;DHT22;4597;48.730;9.114;2023-08-24T16:13:22;23.30;99.90